Portada
METAR-TAF:

METAR-TAF

Aeropuertos :

Conakry, Guinea

Aeropuerto Internacional de Conakri

latitud: 09-34N, longitud: 013-37W, altitud: 26 m

Observación

El informe se hizo hace 31 minutos, a las 20:00 UTC
Viento calma
Temperatura 28°C
Humedad 66%
Presión 1013 hPa
Visibilidad: 5000 m
calima

METAR: GUCY 162000Z 00000KT 5000 HZ NSC 28/21 Q1013 NOSIG

Hora: 20:31 (20:31 UTC)

Pronóstico

El informe se hizo hace 3 horas y 31 minutos, a las 17:00 UTC
Pronóstico válido del 16 a las 18 UTC al 17 a las 24 UTC
Viento 6 kt del oeste-noroeste
Visibilidad: 5000 m
calima
Temporalmente
del 16 a las 19 UTC al 16 a las 23 UTC
Viento 6 kt del norte-noroeste
Visibilidad: 4000 m
calima
Evolucionando progresivamente
del 17 a las 03 UTC al 17 a las 07 UTC
Visibilidad: 3000 m
Escasas nubes a una altura de 1500 ft
neblina

TAF: GUCY 161700Z 1618/1724 30006KT 5000 HZ NSC TEMPO 1619/1623 34006KT 4000 HZ BECMG 1703/1707 3000 BR FEW015

Observaciones y pronósticos meteorológicos de más de 4000 aeropuertos (mensajes METAR y TAF).

Los puntos amarillos y rojos representan las estaciones disponibles.

Ponga el ratón en el punto deseado para ver el nombre de la estación.

Haga clic para ver las observaciones y los pronósticos meteorológicos.

Para cambiar el mapa : haga clic en los botones verdes con una cruz de color negro para hacer un zoom, en el botón verde con un guión para alejar o en las flechas verdes para mapas adyacentes.


METAR-TAF: